sensor_id;sensor_type;location;lat;lon;timestamp;temperature;humidity
34698;DHT22;61391;50.922;6.928;2022-10-31T00:00:58;16.60;99.90
34698;DHT22;61391;50.922;6.928;2022-10-31T00:03:25;16.80;99.90
34698;DHT22;61391;50.922;6.928;2022-10-31T00:05:52;16.80;99.90
34698;DHT22;61391;50.922;6.928;2022-10-31T00:08:18;17.00;99.90
34698;DHT22;61391;50.922;6.928;2022-10-31T00:10:45;16.90;99.90
34698;DHT22;61391;50.922;6.928;2022-10-31T00:13:12;16.90;99.90
34698;DHT22;61391;50.922;6.928;2022-10-31T00:15:39;16.90;99.90
34698;DHT22;61391;50.922;6.928;2022-10-31T00:18:07;16.80;99.90
34698;DHT22;61391;50.922;6.928;2022-10-31T00:20:33;16.70;99.90
34698;DHT22;61391;50.922;6.928;2022-10-31T00:23:00;16.90;99.90
34698;DHT22;61391;50.922;6.928;2022-10-31T00:25:27;16.30;99.90
34698;DHT22;61391;50.922;6.928;2022-10-31T00:27:53;15.90;99.90
34698;DHT22;61391;50.922;6.928;2022-10-31T00:30:19;15.50;99.90
34698;DHT22;61391;50.922;6.928;2022-10-31T00:32:44;15.40;99.90
34698;DHT22;61391;50.922;6.928;2022-10-31T00:35:13;15.20;99.90
34698;DHT22;61391;50.922;6.928;2022-10-31T00:37:38;15.30;99.90
34698;DHT22;61391;50.922;6.928;2022-10-31T00:40:04;15.50;99.90
34698;DHT22;61391;50.922;6.928;2022-10-31T00:42:30;15.60;99.90
34698;DHT22;61391;50.922;6.928;2022-10-31T00:44:56;15.60;99.90
34698;DHT22;61391;50.922;6.928;2022-10-31T00:47:21;15.60;99.90
34698;DHT22;61391;50.922;6.928;2022-10-31T00:49:47;15.60;99.90
34698;DHT22;61391;50.922;6.928;2022-10-31T00:52:12;15.60;99.90
34698;DHT22;61391;50.922;6.928;2022-10-31T00:54:38;15.70;99.90
34698;DHT22;61391;50.922;6.928;2022-10-31T00:57:03;15.80;99.90
34698;DHT22;61391;50.922;6.928;2022-10-31T00:59:29;15.70;99.90
34698;DHT22;61391;50.922;6.928;2022-10-31T01:01:54;15.40;99.90
34698;DHT22;61391;50.922;6.928;2022-10-31T01:04:20;15.40;99.90
34698;DHT22;61391;50.922;6.928;2022-10-31T01:06:46;15.30;99.90
34698;DHT22;61391;50.922;6.928;2022-10-31T01:09:11;15.30;99.90
34698;DHT22;61391;50.922;6.928;2022-10-31T01:11:37;15.10;99.90
34698;DHT22;61391;50.922;6.928;2022-10-31T01:14:02;14.80;99.90
34698;DHT22;61391;50.922;6.928;2022-10-31T01:16:28;14.80;99.90
34698;DHT22;61391;50.922;6.928;2022-10-31T01:18:57;14.90;99.90
34698;DHT22;61391;50.922;6.928;2022-10-31T01:21:24;14.90;99.90
34698;DHT22;61391;50.922;6.928;2022-10-31T01:23:52;15.30;99.90
34698;DHT22;61391;50.922;6.928;2022-10-31T01:26:29;15.60;99.90
34698;DHT22;61391;50.922;6.928;2022-10-31T01:28:58;15.60;99.90
34698;DHT22;61391;50.922;6.928;2022-10-31T01:31:26;15.70;99.90
34698;DHT22;61391;50.922;6.928;2022-10-31T01:33:53;15.10;99.90
34698;DHT22;61391;50.922;6.928;2022-10-31T01:36:25;15.20;99.90
34698;DHT22;61391;50.922;6.928;2022-10-31T01:38:52;15.30;99.90
34698;DHT22;61391;50.922;6.928;2022-10-31T01:41:21;15.60;99.90
34698;DHT22;61391;50.922;6.928;2022-10-31T01:43:52;15.70;99.90
34698;DHT22;61391;50.922;6.928;2022-10-31T01:46:31;15.80;99.90
34698;DHT22;61391;50.922;6.928;2022-10-31T01:49:00;15.80;99.90
34698;DHT22;61391;50.922;6.928;2022-10-31T01:51:35;15.50;99.90
34698;DHT22;61391;50.922;6.928;2022-10-31T01:54:06;15.00;99.90
34698;DHT22;61391;50.922;6.928;2022-10-31T01:56:34;14.90;99.90
34698;DHT22;61391;50.922;6.928;2022-10-31T01:59:05;14.90;99.90
34698;DHT22;61391;50.922;6.928;2022-10-31T02:01:32;14.80;99.90
34698;DHT22;61391;50.922;6.928;2022-10-31T02:03:57;14.50;99.90
34698;DHT22;61391;50.922;6.928;2022-10-31T02:08:58;14.40;99.90
34698;DHT22;61391;50.922;6.928;2022-10-31T02:11:26;14.70;99.90
34698;DHT22;61391;50.922;6.928;2022-10-31T02:13:53;15.10;99.90
34698;DHT22;61391;50.922;6.928;2022-10-31T02:16:18;15.10;99.90
34698;DHT22;61391;50.922;6.928;2022-10-31T02:18:44;15.10;99.90
34698;DHT22;61391;50.922;6.928;2022-10-31T02:21:22;15.10;99.90
34698;DHT22;61391;50.922;6.928;2022-10-31T02:29:52;15.40;99.90
34698;DHT22;61391;50.922;6.928;2022-10-31T02:32:27;15.10;99.90
34698;DHT22;61391;50.922;6.928;2022-10-31T02:35:23;14.80;99.90
34698;DHT22;61391;50.922;6.928;2022-10-31T02:40:33;15.20;99.90
34698;DHT22;61391;50.922;6.928;2022-10-31T02:43:22;15.10;99.90
34698;DHT22;61391;50.922;6.928;2022-10-31T02:46:13;15.20;99.90
34698;DHT22;61391;50.922;6.928;2022-10-31T02:48:41;15.40;99.90
34698;DHT22;61391;50.922;6.928;2022-10-31T02:51:10;15.30;99.90
34698;DHT22;61391;50.922;6.928;2022-10-31T02:53:37;15.20;99.90
34698;DHT22;61391;50.922;6.928;2022-10-31T02:58:38;14.60;99.90
34698;DHT22;61391;50.922;6.928;2022-10-31T03:04:15;14.10;99.90
34698;DHT22;61391;50.922;6.928;2022-10-31T03:09:27;14.30;99.90
34698;DHT22;61391;50.922;6.928;2022-10-31T03:12:10;14.30;99.90
34698;DHT22;61391;50.922;6.928;2022-10-31T03:14:52;14.00;99.90
34698;DHT22;61391;50.922;6.928;2022-10-31T03:17:31;13.80;99.90
34698;DHT22;61391;50.922;6.928;2022-10-31T03:20:00;13.70;99.90
34698;DHT22;61391;50.922;6.928;2022-10-31T03:22:30;14.00;99.90
34698;DHT22;61391;50.922;6.928;2022-10-31T03:24:57;14.50;99.90
34698;DHT22;61391;50.922;6.928;2022-10-31T03:27:26;14.50;99.90
34698;DHT22;61391;50.922;6.928;2022-10-31T03:29:56;14.70;99.90
34698;DHT22;61391;50.922;6.928;2022-10-31T03:32:27;14.70;99.90
34698;DHT22;61391;50.922;6.928;2022-10-31T03:34:57;14.80;99.90
34698;DHT22;61391;50.922;6.928;2022-10-31T03:37:27;14.70;99.90
34698;DHT22;61391;50.922;6.928;2022-10-31T03:39:55;14.40;99.90
34698;DHT22;61391;50.922;6.928;2022-10-31T03:42:24;14.10;99.90
34698;DHT22;61391;50.922;6.928;2022-10-31T03:44:59;14.10;99.90
34698;DHT22;61391;50.922;6.928;2022-10-31T03:47:28;13.80;99.90
34698;DHT22;61391;50.922;6.928;2022-10-31T03:49:54;13.60;99.90
34698;DHT22;61391;50.922;6.928;2022-10-31T03:52:32;13.60;99.90
34698;DHT22;61391;50.922;6.928;2022-10-31T03:55:07;13.60;99.90
34698;DHT22;61391;50.922;6.928;2022-10-31T03:57:43;13.50;99.90
34698;DHT22;61391;50.922;6.928;2022-10-31T04:00:14;13.50;99.90
34698;DHT22;61391;50.922;6.928;2022-10-31T04:02:45;13.50;99.90
34698;DHT22;61391;50.922;6.928;2022-10-31T04:05:13;13.50;99.90
34698;DHT22;61391;50.922;6.928;2022-10-31T04:07:44;13.50;99.90
34698;DHT22;61391;50.922;6.928;2022-10-31T04:10:13;13.40;99.90
34698;DHT22;61391;50.922;6.928;2022-10-31T04:12:41;13.40;99.90
34698;DHT22;61391;50.922;6.928;2022-10-31T04:15:10;13.50;99.90
34698;DHT22;61391;50.922;6.928;2022-10-31T04:17:39;13.60;99.90
34698;DHT22;61391;50.922;6.928;2022-10-31T04:20:06;13.60;99.90
34698;DHT22;61391;50.922;6.928;2022-10-31T04:22:31;13.50;99.90
34698;DHT22;61391;50.922;6.928;2022-10-31T04:24:57;13.50;99.90
34698;DHT22;61391;50.922;6.928;2022-10-31T04:27:23;13.50;99.90
34698;DHT22;61391;50.922;6.928;2022-10-31T04:29:48;13.70;99.90
34698;DHT22;61391;50.922;6.928;2022-10-31T04:32:14;13.80;99.90
34698;DHT22;61391;50.922;6.928;2022-10-31T04:34:39;14.10;99.90
34698;DHT22;61391;50.922;6.928;2022-10-31T04:37:05;14.00;99.90
34698;DHT22;61391;50.922;6.928;2022-10-31T04:39:30;13.70;99.90
34698;DHT22;61391;50.922;6.928;2022-10-31T04:41:56;13.60;99.90
34698;DHT22;61391;50.922;6.928;2022-10-31T04:44:21;13.40;99.90
34698;DHT22;61391;50.922;6.928;2022-10-31T04:46:47;13.40;99.90
34698;DHT22;61391;50.922;6.928;2022-10-31T04:49:13;13.40;99.90
34698;DHT22;61391;50.922;6.928;2022-10-31T04:51:38;13.50;99.90
34698;DHT22;61391;50.922;6.928;2022-10-31T04:54:04;13.50;99.90
34698;DHT22;61391;50.922;6.928;2022-10-31T04:56:30;13.60;99.90
34698;DHT22;61391;50.922;6.928;2022-10-31T04:58:55;13.60;99.90
34698;DHT22;61391;50.922;6.928;2022-10-31T05:01:21;13.70;99.90
34698;DHT22;61391;50.922;6.928;2022-10-31T05:03:46;13.70;99.90
34698;DHT22;61391;50.922;6.928;2022-10-31T05:06:12;13.60;99.90
34698;DHT22;61391;50.922;6.928;2022-10-31T05:08:37;13.70;99.90
34698;DHT22;61391;50.922;6.928;2022-10-31T05:11:03;13.40;99.90
34698;DHT22;61391;50.922;6.928;2022-10-31T05:13:30;13.30;99.90
34698;DHT22;61391;50.922;6.928;2022-10-31T05:15:56;13.30;99.90
34698;DHT22;61391;50.922;6.928;2022-10-31T05:18:21;13.30;99.90
34698;DHT22;61391;50.922;6.928;2022-10-31T05:20:47;13.40;99.90
34698;DHT22;61391;50.922;6.928;2022-10-31T05:23:13;13.30;99.90
34698;DHT22;61391;50.922;6.928;2022-10-31T05:25:39;13.20;99.90
34698;DHT22;61391;50.922;6.928;2022-10-31T05:28:05;13.20;99.90
34698;DHT22;61391;50.922;6.928;2022-10-31T05:30:31;13.20;99.90
34698;DHT22;61391;50.922;6.928;2022-10-31T05:32:57;13.20;99.90
34698;DHT22;61391;50.922;6.928;2022-10-31T05:35:26;13.30;99.90
34698;DHT22;61391;50.922;6.928;2022-10-31T05:37:52;13.40;99.90
34698;DHT22;61391;50.922;6.928;2022-10-31T05:40:18;13.40;99.90
34698;DHT22;61391;50.922;6.928;2022-10-31T05:42:45;13.60;99.90
34698;DHT22;61391;50.922;6.928;2022-10-31T05:45:12;13.60;99.90
34698;DHT22;61391;50.922;6.928;2022-10-31T05:47:38;13.30;99.90
34698;DHT22;61391;50.922;6.928;2022-10-31T05:50:05;13.30;99.90
34698;DHT22;61391;50.922;6.928;2022-10-31T05:52:31;13.40;99.90
34698;DHT22;61391;50.922;6.928;2022-10-31T05:54:57;13.50;99.90
34698;DHT22;61391;50.922;6.928;2022-10-31T05:57:22;13.60;99.90
34698;DHT22;61391;50.922;6.928;2022-10-31T05:59:48;13.40;99.90
34698;DHT22;61391;50.922;6.928;2022-10-31T06:02:14;13.50;99.90
34698;DHT22;61391;50.922;6.928;2022-10-31T06:04:39;13.70;99.90
34698;DHT22;61391;50.922;6.928;2022-10-31T06:07:05;13.90;99.90
34698;DHT22;61391;50.922;6.928;2022-10-31T06:09:30;13.60;99.90
34698;DHT22;61391;50.922;6.928;2022-10-31T06:11:56;13.60;99.90
34698;DHT22;61391;50.922;6.928;2022-10-31T06:14:21;13.50;99.90
34698;DHT22;61391;50.922;6.928;2022-10-31T06:16:47;13.50;99.90
34698;DHT22;61391;50.922;6.928;2022-10-31T06:19:12;13.30;99.90
34698;DHT22;61391;50.922;6.928;2022-10-31T06:21:38;13.10;99.90
34698;DHT22;61391;50.922;6.928;2022-10-31T06:24:04;13.20;99.90
34698;DHT22;61391;50.922;6.928;2022-10-31T06:26:29;13.10;99.90
34698;DHT22;61391;50.922;6.928;2022-10-31T06:28:55;13.10;99.90
34698;DHT22;61391;50.922;6.928;2022-10-31T06:31:21;13.00;99.90
34698;DHT22;61391;50.922;6.928;2022-10-31T06:33:47;13.10;99.90
34698;DHT22;61391;50.922;6.928;2022-10-31T06:36:12;13.10;99.90
34698;DHT22;61391;50.922;6.928;2022-10-31T06:38:38;13.10;99.90
34698;DHT22;61391;50.922;6.928;2022-10-31T06:41:04;13.00;99.90
34698;DHT22;61391;50.922;6.928;2022-10-31T06:43:32;13.00;99.90
34698;DHT22;61391;50.922;6.928;2022-10-31T06:45:57;12.80;99.90
34698;DHT22;61391;50.922;6.928;2022-10-31T06:48:26;12.70;99.90
34698;DHT22;61391;50.922;6.928;2022-10-31T06:50:52;12.80;99.90
34698;DHT22;61391;50.922;6.928;2022-10-31T06:53:17;12.70;99.90
34698;DHT22;61391;50.922;6.928;2022-10-31T06:55:43;12.60;99.90
34698;DHT22;61391;50.922;6.928;2022-10-31T06:58:09;12.60;99.90
34698;DHT22;61391;50.922;6.928;2022-10-31T07:00:35;12.50;99.90
34698;DHT22;61391;50.922;6.928;2022-10-31T07:03:03;12.40;99.90
34698;DHT22;61391;50.922;6.928;2022-10-31T07:05:30;12.40;99.90
34698;DHT22;61391;50.922;6.928;2022-10-31T07:07:58;12.50;99.90
34698;DHT22;61391;50.922;6.928;2022-10-31T07:10:25;12.60;99.90
34698;DHT22;61391;50.922;6.928;2022-10-31T07:13:00;12.60;99.90
34698;DHT22;61391;50.922;6.928;2022-10-31T07:15:27;12.60;99.90
34698;DHT22;61391;50.922;6.928;2022-10-31T07:17:53;12.90;99.90
34698;DHT22;61391;50.922;6.928;2022-10-31T07:20:19;13.00;99.90
34698;DHT22;61391;50.922;6.928;2022-10-31T07:22:45;13.00;99.90
34698;DHT22;61391;50.922;6.928;2022-10-31T07:25:11;13.10;99.90
34698;DHT22;61391;50.922;6.928;2022-10-31T07:27:42;13.20;99.90
34698;DHT22;61391;50.922;6.928;2022-10-31T07:30:10;13.60;99.90
34698;DHT22;61391;50.922;6.928;2022-10-31T07:32:44;13.90;99.90
34698;DHT22;61391;50.922;6.928;2022-10-31T07:35:13;13.90;99.90
34698;DHT22;61391;50.922;6.928;2022-10-31T07:37:40;14.00;99.90
34698;DHT22;61391;50.922;6.928;2022-10-31T07:40:07;14.00;99.90
34698;DHT22;61391;50.922;6.928;2022-10-31T07:42:38;13.90;99.90
34698;DHT22;61391;50.922;6.928;2022-10-31T07:45:05;14.00;99.90
34698;DHT22;61391;50.922;6.928;2022-10-31T07:47:39;14.50;99.90
34698;DHT22;61391;50.922;6.928;2022-10-31T07:50:05;15.10;99.90
34698;DHT22;61391;50.922;6.928;2022-10-31T07:52:30;15.20;99.90
34698;DHT22;61391;50.922;6.928;2022-10-31T07:54:56;15.40;99.90
34698;DHT22;61391;50.922;6.928;2022-10-31T07:57:22;15.50;99.90
34698;DHT22;61391;50.922;6.928;2022-10-31T07:59:47;15.10;99.90
34698;DHT22;61391;50.922;6.928;2022-10-31T08:02:13;15.20;99.90
34698;DHT22;61391;50.922;6.928;2022-10-31T08:04:38;15.00;99.90
34698;DHT22;61391;50.922;6.928;2022-10-31T08:07:04;14.70;99.90
34698;DHT22;61391;50.922;6.928;2022-10-31T08:09:29;14.90;99.90
34698;DHT22;61391;50.922;6.928;2022-10-31T08:11:55;14.70;99.90
34698;DHT22;61391;50.922;6.928;2022-10-31T08:14:21;14.20;99.90
34698;DHT22;61391;50.922;6.928;2022-10-31T08:16:48;14.00;99.90
34698;DHT22;61391;50.922;6.928;2022-10-31T08:19:14;13.80;99.90
34698;DHT22;61391;50.922;6.928;2022-10-31T08:21:40;13.80;99.90
34698;DHT22;61391;50.922;6.928;2022-10-31T08:24:05;13.60;99.90
34698;DHT22;61391;50.922;6.928;2022-10-31T08:26:31;13.60;99.90
34698;DHT22;61391;50.922;6.928;2022-10-31T08:28:57;13.60;99.90
34698;DHT22;61391;50.922;6.928;2022-10-31T08:31:23;13.80;99.90
34698;DHT22;61391;50.922;6.928;2022-10-31T08:33:52;13.90;99.90
34698;DHT22;61391;50.922;6.928;2022-10-31T08:36:17;14.20;99.90
34698;DHT22;61391;50.922;6.928;2022-10-31T08:38:43;14.20;99.90
34698;DHT22;61391;50.922;6.928;2022-10-31T08:41:09;14.30;99.90
34698;DHT22;61391;50.922;6.928;2022-10-31T08:43:34;14.50;99.90
34698;DHT22;61391;50.922;6.928;2022-10-31T08:46:00;14.40;99.90
34698;DHT22;61391;50.922;6.928;2022-10-31T08:48:25;14.40;99.90
34698;DHT22;61391;50.922;6.928;2022-10-31T08:50:51;14.20;99.90
34698;DHT22;61391;50.922;6.928;2022-10-31T08:53:18;14.20;99.90
34698;DHT22;61391;50.922;6.928;2022-10-31T08:55:45;14.40;99.90
34698;DHT22;61391;50.922;6.928;2022-10-31T08:58:13;14.60;99.90
34698;DHT22;61391;50.922;6.928;2022-10-31T09:00:39;14.90;99.90
34698;DHT22;61391;50.922;6.928;2022-10-31T09:03:09;14.70;99.90
34698;DHT22;61391;50.922;6.928;2022-10-31T09:05:35;14.70;99.90
34698;DHT22;61391;50.922;6.928;2022-10-31T09:08:02;14.80;99.90
34698;DHT22;61391;50.922;6.928;2022-10-31T09:10:29;14.70;99.90
34698;DHT22;61391;50.922;6.928;2022-10-31T09:12:59;14.90;99.90
34698;DHT22;61391;50.922;6.928;2022-10-31T09:15:26;15.10;99.90
34698;DHT22;61391;50.922;6.928;2022-10-31T09:17:52;15.20;99.90
34698;DHT22;61391;50.922;6.928;2022-10-31T09:20:19;14.90;99.90
34698;DHT22;61391;50.922;6.928;2022-10-31T09:22:46;15.10;99.90
34698;DHT22;61391;50.922;6.928;2022-10-31T09:25:12;15.60;99.90
34698;DHT22;61391;50.922;6.928;2022-10-31T09:27:39;15.80;99.90
34698;DHT22;61391;50.922;6.928;2022-10-31T09:30:05;15.80;99.90
34698;DHT22;61391;50.922;6.928;2022-10-31T09:32:31;15.40;99.90
34698;DHT22;61391;50.922;6.928;2022-10-31T09:34:56;15.10;99.90
34698;DHT22;61391;50.922;6.928;2022-10-31T09:37:22;15.00;99.90
34698;DHT22;61391;50.922;6.928;2022-10-31T09:39:48;15.20;99.90
34698;DHT22;61391;50.922;6.928;2022-10-31T09:45:16;15.70;99.90
34698;DHT22;61391;50.922;6.928;2022-10-31T09:48:22;16.00;99.90
34698;DHT22;61391;50.922;6.928;2022-10-31T09:50:53;16.50;99.90
34698;DHT22;61391;50.922;6.928;2022-10-31T09:55:57;17.40;99.90
34698;DHT22;61391;50.922;6.928;2022-10-31T09:58:26;17.70;99.90
34698;DHT22;61391;50.922;6.928;2022-10-31T10:00:55;17.30;99.90
34698;DHT22;61391;50.922;6.928;2022-10-31T10:03:44;17.80;99.90
34698;DHT22;61391;50.922;6.928;2022-10-31T10:06:21;18.10;99.90
34698;DHT22;61391;50.922;6.928;2022-10-31T10:08:47;18.40;99.90
34698;DHT22;61391;50.922;6.928;2022-10-31T10:11:35;19.30;99.90
34698;DHT22;61391;50.922;6.928;2022-10-31T10:14:06;18.90;99.90
34698;DHT22;61391;50.922;6.928;2022-10-31T10:19:44;18.40;99.90
34698;DHT22;61391;50.922;6.928;2022-10-31T10:22:29;18.60;99.90
34698;DHT22;61391;50.922;6.928;2022-10-31T10:25:14;19.20;99.90
34698;DHT22;61391;50.922;6.928;2022-10-31T10:27:49;19.60;99.90
34698;DHT22;61391;50.922;6.928;2022-10-31T10:30:22;19.70;99.90
34698;DHT22;61391;50.922;6.928;2022-10-31T10:32:54;19.70;99.90
34698;DHT22;61391;50.922;6.928;2022-10-31T10:35:25;19.70;99.90
34698;DHT22;61391;50.922;6.928;2022-10-31T10:37:57;18.90;99.90
34698;DHT22;61391;50.922;6.928;2022-10-31T10:40:26;18.80;99.90
34698;DHT22;61391;50.922;6.928;2022-10-31T10:46:00;18.50;99.90
34698;DHT22;61391;50.922;6.928;2022-10-31T10:57:27;17.30;99.90
34698;DHT22;61391;50.922;6.928;2022-10-31T10:59:54;17.40;99.90
34698;DHT22;61391;50.922;6.928;2022-10-31T11:02:31;17.50;99.90
34698;DHT22;61391;50.922;6.928;2022-10-31T11:04:58;17.40;99.90
34698;DHT22;61391;50.922;6.928;2022-10-31T11:07:25;17.50;99.90
34698;DHT22;61391;50.922;6.928;2022-10-31T11:10:01;17.80;99.90
34698;DHT22;61391;50.922;6.928;2022-10-31T11:12:31;17.80;99.90
34698;DHT22;61391;50.922;6.928;2022-10-31T11:18:20;18.00;99.90
34698;DHT22;61391;50.922;6.928;2022-10-31T11:20:51;17.80;99.90
34698;DHT22;61391;50.922;6.928;2022-10-31T11:23:19;18.10;99.90
34698;DHT22;61391;50.922;6.928;2022-10-31T11:25:56;18.10;99.90
34698;DHT22;61391;50.922;6.928;2022-10-31T11:28:22;18.10;99.90
34698;DHT22;61391;50.922;6.928;2022-10-31T11:31:08;18.10;99.90
34698;DHT22;61391;50.922;6.928;2022-10-31T11:39:31;18.30;99.90
34698;DHT22;61391;50.922;6.928;2022-10-31T11:42:00;18.20;99.90
34698;DHT22;61391;50.922;6.928;2022-10-31T11:44:28;18.40;99.90
34698;DHT22;61391;50.922;6.928;2022-10-31T11:46:57;18.60;99.90
34698;DHT22;61391;50.922;6.928;2022-10-31T11:49:42;18.40;99.90
34698;DHT22;61391;50.922;6.928;2022-10-31T11:52:25;18.20;99.90
34698;DHT22;61391;50.922;6.928;2022-10-31T11:54:59;18.10;99.90
34698;DHT22;61391;50.922;6.928;2022-10-31T11:57:43;18.10;99.90
34698;DHT22;61391;50.922;6.928;2022-10-31T12:06:31;18.20;99.90
34698;DHT22;61391;50.922;6.928;2022-10-31T12:08:58;18.10;99.90
34698;DHT22;61391;50.922;6.928;2022-10-31T12:14:22;18.30;99.90
34698;DHT22;61391;50.922;6.928;2022-10-31T12:16:59;18.20;99.90
34698;DHT22;61391;50.922;6.928;2022-10-31T12:19:58;18.20;99.90
34698;DHT22;61391;50.922;6.928;2022-10-31T12:22:54;18.20;99.90
34698;DHT22;61391;50.922;6.928;2022-10-31T12:36:33;18.20;99.90
34698;DHT22;61391;50.922;6.928;2022-10-31T12:48:08;18.30;99.90
34698;DHT22;61391;50.922;6.928;2022-10-31T12:53:27;18.30;99.90
34698;DHT22;61391;50.922;6.928;2022-10-31T13:01:49;18.50;99.90
34698;DHT22;61391;50.922;6.928;2022-10-31T13:06:51;18.30;99.90
34698;DHT22;61391;50.922;6.928;2022-10-31T13:09:23;18.20;99.90
34698;DHT22;61391;50.922;6.928;2022-10-31T13:11:58;18.30;99.90
34698;DHT22;61391;50.922;6.928;2022-10-31T13:14:39;18.30;99.90
34698;DHT22;61391;50.922;6.928;2022-10-31T13:17:14;18.30;99.90
34698;DHT22;61391;50.922;6.928;2022-10-31T13:19:43;18.30;99.90
34698;DHT22;61391;50.922;6.928;2022-10-31T13:22:18;18.40;99.90
34698;DHT22;61391;50.922;6.928;2022-10-31T13:24:58;18.30;99.90
34698;DHT22;61391;50.922;6.928;2022-10-31T13:27:42;18.30;99.90
34698;DHT22;61391;50.922;6.928;2022-10-31T13:30:20;18.40;99.90
34698;DHT22;61391;50.922;6.928;2022-10-31T13:33:09;18.40;99.90
34698;DHT22;61391;50.922;6.928;2022-10-31T13:35:39;18.50;99.90
34698;DHT22;61391;50.922;6.928;2022-10-31T13:40:46;18.80;99.90
34698;DHT22;61391;50.922;6.928;2022-10-31T13:45:51;18.90;99.90
34698;DHT22;61391;50.922;6.928;2022-10-31T13:50:58;18.60;99.90
34698;DHT22;61391;50.922;6.928;2022-10-31T13:56:13;18.60;99.90
34698;DHT22;61391;50.922;6.928;2022-10-31T14:01:22;18.60;99.90
34698;DHT22;61391;50.922;6.928;2022-10-31T14:04:06;18.60;99.90
34698;DHT22;61391;50.922;6.928;2022-10-31T14:10:03;18.40;99.90
34698;DHT22;61391;50.922;6.928;2022-10-31T14:12:41;18.40;99.90
34698;DHT22;61391;50.922;6.928;2022-10-31T14:15:23;18.40;99.90
34698;DHT22;61391;50.922;6.928;2022-10-31T14:18:01;18.30;99.90
34698;DHT22;61391;50.922;6.928;2022-10-31T14:20:42;18.40;99.90
34698;DHT22;61391;50.922;6.928;2022-10-31T14:23:38;18.40;99.90
34698;DHT22;61391;50.922;6.928;2022-10-31T14:31:27;18.40;99.90
34698;DHT22;61391;50.922;6.928;2022-10-31T14:33:54;18.40;99.90
34698;DHT22;61391;50.922;6.928;2022-10-31T14:42:01;18.60;99.90
34698;DHT22;61391;50.922;6.928;2022-10-31T14:44:55;18.60;99.90
34698;DHT22;61391;50.922;6.928;2022-10-31T14:47:56;18.50;99.90
34698;DHT22;61391;50.922;6.928;2022-10-31T14:50:38;18.70;99.90
34698;DHT22;61391;50.922;6.928;2022-10-31T14:53:09;18.70;99.90
34698;DHT22;61391;50.922;6.928;2022-10-31T14:55:42;18.70;99.90
34698;DHT22;61391;50.922;6.928;2022-10-31T14:58:08;18.70;99.90
34698;DHT22;61391;50.922;6.928;2022-10-31T15:00:35;18.60;99.90
34698;DHT22;61391;50.922;6.928;2022-10-31T15:03:16;18.60;99.90
34698;DHT22;61391;50.922;6.928;2022-10-31T15:05:50;18.60;99.90
34698;DHT22;61391;50.922;6.928;2022-10-31T15:10:53;18.60;99.90
34698;DHT22;61391;50.922;6.928;2022-10-31T15:13:21;18.60;99.90
34698;DHT22;61391;50.922;6.928;2022-10-31T15:15:48;18.50;99.90
34698;DHT22;61391;50.922;6.928;2022-10-31T15:18:21;18.50;99.90
34698;DHT22;61391;50.922;6.928;2022-10-31T15:20:47;18.60;99.90
34698;DHT22;61391;50.922;6.928;2022-10-31T15:23:29;18.50;99.90
34698;DHT22;61391;50.922;6.928;2022-10-31T15:26:04;18.40;99.90
34698;DHT22;61391;50.922;6.928;2022-10-31T15:28:31;18.40;99.90
34698;DHT22;61391;50.922;6.928;2022-10-31T15:31:01;18.60;99.90
34698;DHT22;61391;50.922;6.928;2022-10-31T15:33:39;18.40;99.90
34698;DHT22;61391;50.922;6.928;2022-10-31T15:36:05;18.40;99.90
34698;DHT22;61391;50.922;6.928;2022-10-31T15:38:31;18.30;99.90
34698;DHT22;61391;50.922;6.928;2022-10-31T15:41:04;18.30;99.90
34698;DHT22;61391;50.922;6.928;2022-10-31T15:43:35;18.30;99.90
34698;DHT22;61391;50.922;6.928;2022-10-31T15:46:02;18.20;99.90
34698;DHT22;61391;50.922;6.928;2022-10-31T15:48:28;18.20;99.90
34698;DHT22;61391;50.922;6.928;2022-10-31T15:50:57;18.20;99.90
34698;DHT22;61391;50.922;6.928;2022-10-31T15:53:41;18.20;99.90
34698;DHT22;61391;50.922;6.928;2022-10-31T15:56:11;18.10;99.90
34698;DHT22;61391;50.922;6.928;2022-10-31T15:58:46;18.10;99.90
34698;DHT22;61391;50.922;6.928;2022-10-31T16:06:37;18.00;99.90
34698;DHT22;61391;50.922;6.928;2022-10-31T16:09:03;18.00;99.90
34698;DHT22;61391;50.922;6.928;2022-10-31T16:11:43;17.80;99.90
34698;DHT22;61391;50.922;6.928;2022-10-31T16:16:46;17.90;99.90
34698;DHT22;61391;50.922;6.928;2022-10-31T16:19:32;17.90;99.90
34698;DHT22;61391;50.922;6.928;2022-10-31T16:22:10;17.90;99.90
34698;DHT22;61391;50.922;6.928;2022-10-31T16:24:45;17.90;99.90
34698;DHT22;61391;50.922;6.928;2022-10-31T16:27:23;17.70;99.90
34698;DHT22;61391;50.922;6.928;2022-10-31T16:29:52;17.70;99.90
34698;DHT22;61391;50.922;6.928;2022-10-31T16:37:24;17.60;99.90
34698;DHT22;61391;50.922;6.928;2022-10-31T16:39:50;17.70;99.90
34698;DHT22;61391;50.922;6.928;2022-10-31T16:42:15;17.70;99.90
34698;DHT22;61391;50.922;6.928;2022-10-31T16:44:43;17.60;99.90
34698;DHT22;61391;50.922;6.928;2022-10-31T16:47:14;17.50;99.90
34698;DHT22;61391;50.922;6.928;2022-10-31T16:49:41;17.50;99.90
34698;DHT22;61391;50.922;6.928;2022-10-31T16:52:37;17.50;99.90
34698;DHT22;61391;50.922;6.928;2022-10-31T16:55:03;17.50;99.90
34698;DHT22;61391;50.922;6.928;2022-10-31T16:57:30;17.50;99.90
34698;DHT22;61391;50.922;6.928;2022-10-31T16:59:57;17.60;99.90
34698;DHT22;61391;50.922;6.928;2022-10-31T17:02:22;17.50;99.90
34698;DHT22;61391;50.922;6.928;2022-10-31T17:04:48;17.60;99.90
34698;DHT22;61391;50.922;6.928;2022-10-31T17:07:14;17.40;99.90
34698;DHT22;61391;50.922;6.928;2022-10-31T17:09:39;17.50;99.90
34698;DHT22;61391;50.922;6.928;2022-10-31T17:12:09;17.40;99.90
34698;DHT22;61391;50.922;6.928;2022-10-31T17:14:36;17.40;99.90
34698;DHT22;61391;50.922;6.928;2022-10-31T17:17:02;17.30;99.90
34698;DHT22;61391;50.922;6.928;2022-10-31T17:19:27;17.40;99.90
34698;DHT22;61391;50.922;6.928;2022-10-31T17:21:53;17.40;99.90
34698;DHT22;61391;50.922;6.928;2022-10-31T17:24:18;17.50;99.90
34698;DHT22;61391;50.922;6.928;2022-10-31T17:26:44;17.40;99.90
34698;DHT22;61391;50.922;6.928;2022-10-31T17:29:11;17.40;99.90
34698;DHT22;61391;50.922;6.928;2022-10-31T17:31:37;17.50;99.90
34698;DHT22;61391;50.922;6.928;2022-10-31T17:34:04;17.40;99.90
34698;DHT22;61391;50.922;6.928;2022-10-31T17:36:31;17.60;99.90
34698;DHT22;61391;50.922;6.928;2022-10-31T17:38:58;17.50;99.90
34698;DHT22;61391;50.922;6.928;2022-10-31T17:41:24;17.30;99.90
34698;DHT22;61391;50.922;6.928;2022-10-31T17:43:54;17.20;99.90
34698;DHT22;61391;50.922;6.928;2022-10-31T17:46:20;17.20;99.90
34698;DHT22;61391;50.922;6.928;2022-10-31T17:48:45;17.20;99.90
34698;DHT22;61391;50.922;6.928;2022-10-31T17:51:11;17.20;99.90
34698;DHT22;61391;50.922;6.928;2022-10-31T17:53:37;17.30;99.90
34698;DHT22;61391;50.922;6.928;2022-10-31T17:56:07;17.40;99.90
34698;DHT22;61391;50.922;6.928;2022-10-31T17:58:34;17.40;99.90